Time;durP1;ratioP1;P1;durP2;ratioP2;P2;SDS_P1;SDS_P2;PMS_P1;PMS_P2;Temp;Humidity;BMP_temperature;BMP_pressure;BME280_temperature;BME280_humidity;BME280_pressure;Samples;Min_cycle;Max_cycle;Signal;HPM_P1;HPM_P2
2022/02/01 00:01:27;;;;;;;4.07;0.93;;;5.70;99.90;;;;;;5102252;28;20038;-77
2022/02/01 00:03:58;;;;;;;1.70;0.70;;;5.70;99.90;;;;;;5097774;28;20027;-77
2022/02/01 00:06:36;;;;;;;3.00;0.90;;;5.70;99.90;;;;;;5098568;28;20110;-77
2022/02/01 00:09:13;;;;;;;4.27;0.80;;;5.70;99.90;;;;;;5099363;28;20027;-77
2022/02/01 00:19:42;;;;;;;2.27;0.80;;;5.80;99.90;;;;;;5115889;28;20036;-76
2022/02/01 00:35:47;;;;;;;2.60;0.70;;;5.80;99.90;;;;;;5115516;28;20448;-78
2022/02/01 00:40:40;;;;;;;3.13;0.70;;;5.80;99.90;;;;;;5115108;28;20107;-78
2022/02/01 00:43:06;;;;;;;2.37;0.70;;;5.80;99.90;;;;;;5115334;28;20059;-77
2022/02/01 00:45:33;;;;;;;2.77;0.97;;;5.80;99.90;;;;;;5115604;28;20031;-76
2022/02/01 00:47:58;;;;;;;2.00;0.47;;;5.80;99.90;;;;;;5096942;28;20038;-77
2022/02/01 00:50:24;;;;;;;3.17;0.60;;;5.90;99.90;;;;;;5097282;28;20381;-77
2022/02/01 00:52:51;;;;;;;4.87;0.90;;;5.90;99.90;;;;;;5096618;28;20066;-77
2022/02/01 00:55:17;;;;;;;5.87;0.87;;;5.80;99.90;;;;;;5097311;28;20194;-76
2022/02/01 00:57:42;;;;;;;5.60;0.97;;;5.90;99.90;;;;;;5087020;28;20481;-77
2022/02/01 01:00:11;;;;;;;2.73;0.90;;;5.80;99.90;;;;;;5097168;28;20077;-77
2022/02/01 01:02:37;;;;;;;4.53;0.90;;;5.80;99.90;;;;;;5097064;28;20112;-77
2022/02/01 01:05:04;;;;;;;5.00;0.90;;;5.80;99.90;;;;;;5114415;28;20481;-78
2022/02/01 01:07:30;;;;;;;3.87;1.10;;;5.80;99.90;;;;;;5095794;28;20153;-77
2022/02/01 01:09:57;;;;;;;5.27;1.17;;;5.90;99.90;;;;;;5096455;28;20446;-77
2022/02/01 01:12:27;;;;;;;5.10;1.07;;;5.80;99.90;;;;;;5097001;28;20030;-77
2022/02/01 01:45:14;;;;;;;8.73;1.87;;;5.80;99.90;;;;;;5099059;28;20089;-76
2022/02/01 01:55:39;;;;;;;9.07;1.40;;;5.90;99.90;;;;;;5114010;28;20032;-76
2022/02/01 01:58:06;;;;;;;5.33;1.00;;;5.90;99.90;;;;;;5095477;28;20039;-76
2022/02/01 02:01:18;;;;;;;5.33;1.00;;;5.80;99.90;;;;;;5113797;28;20036;-75
2022/02/01 02:03:19;;;;;;;7.13;1.23;;;5.80;99.90;;;;;;5085497;28;20032;-77
2022/02/01 02:05:44;;;;;;;5.93;1.20;;;5.90;99.90;;;;;;5113160;28;20452;-77
2022/02/01 02:08:12;;;;;;;5.03;1.00;;;5.80;99.90;;;;;;5113899;28;20038;-76
2022/02/01 02:10:47;;;;;;;4.77;1.90;;;5.80;99.90;;;;;;5113876;28;20035;-76
2022/02/01 02:16:02;;;;;;;7.50;1.43;;;5.80;99.90;;;;;;5083997;28;20124;-76
2022/02/01 02:18:34;;;;;;;8.20;1.23;;;5.80;99.90;;;;;;5095419;28;20171;-76
2022/02/01 02:21:02;;;;;;;9.07;1.40;;;5.80;99.90;;;;;;5113178;28;20453;-76
2022/02/01 02:23:28;;;;;;;8.53;1.13;;;5.80;99.90;;;;;;5095471;28;20384;-76
2022/02/01 02:25:54;;;;;;;5.57;1.03;;;5.80;99.90;;;;;;5091430;28;20054;-76
2022/02/01 02:28:21;;;;;;;6.47;0.80;;;5.80;99.90;;;;;;5093304;28;20028;-76
2022/02/01 02:30:50;;;;;;;6.20;1.40;;;5.80;99.90;;;;;;5091408;28;20436;-77
2022/02/01 02:33:17;;;;;;;3.53;1.50;;;5.80;99.90;;;;;;5091996;28;20107;-77
2022/02/01 02:35:48;;;;;;;7.37;1.33;;;5.80;99.90;;;;;;5091444;28;20039;-77
2022/02/01 02:38:19;;;;;;;9.57;1.40;;;5.80;99.90;;;;;;5091802;28;20032;-76
2022/02/01 02:41:03;;;;;;;7.85;1.70;;;5.80;99.90;;;;;;5092896;28;20020;-77
2022/02/01 02:46:13;;;;;;;7.90;1.20;;;5.70;99.90;;;;;;5092842;28;20109;-76
2022/02/01 02:48:38;;;;;;;9.20;1.90;;;5.70;99.90;;;;;;5091558;28;20052;-76
2022/02/01 02:51:04;;;;;;;11.47;1.57;;;5.70;99.90;;;;;;5092452;28;20023;-76
2022/02/01 02:53:30;;;;;;;8.87;1.30;;;5.70;99.90;;;;;;5091614;28;20028;-76
2022/02/01 02:55:55;;;;;;;10.80;1.93;;;5.70;99.80;;;;;;5091034;28;20024;-76
2022/02/01 02:58:21;;;;;;;8.47;2.00;;;5.60;99.70;;;;;;5091307;28;20508;-76
2022/02/01 03:00:47;;;;;;;7.73;1.47;;;5.60;99.90;;;;;;5079332;28;20078;-76
2022/02/01 03:03:13;;;;;;;10.37;1.60;;;5.60;99.80;;;;;;5091561;28;20457;-76
2022/02/01 03:05:38;;;;;;;7.47;1.50;;;5.60;99.60;;;;;;5092608;28;20028;-76
2022/02/01 03:08:04;;;;;;;5.07;1.40;;;5.60;99.40;;;;;;5092195;28;20028;-76
2022/02/01 03:10:30;;;;;;;8.97;1.80;;;5.60;99.00;;;;;;5091367;28;20035;-76
2022/02/01 03:13:11;;;;;;;8.10;1.67;;;5.60;99.10;;;;;;5090618;28;20016;-76
2022/02/01 03:15:45;;;;;;;8.70;2.07;;;5.60;99.40;;;;;;5091228;28;20400;-76
2022/02/01 03:20:55;;;;;;;4.93;1.47;;;5.50;99.50;;;;;;5090532;28;20036;-76
2022/02/01 03:23:21;;;;;;;4.87;1.30;;;5.60;99.50;;;;;;5091281;28;20024;-76
2022/02/01 03:25:47;;;;;;;6.27;1.47;;;5.50;99.30;;;;;;5093554;28;20051;-77
2022/02/01 03:28:12;;;;;;;7.67;1.60;;;5.50;99.50;;;;;;5112671;28;20055;-76
2022/02/01 03:30:38;;;;;;;10.03;1.67;;;5.50;99.10;;;;;;5093873;28;20028;-76
2022/02/01 03:33:04;;;;;;;7.70;1.20;;;5.50;99.30;;;;;;5093866;28;20049;-76
2022/02/01 03:35:32;;;;;;;6.63;1.20;;;5.50;99.30;;;;;;5094556;28;20425;-75
2022/02/01 03:37:58;;;;;;;9.33;1.50;;;5.50;99.10;;;;;;5111903;28;20111;-76
2022/02/01 03:40:24;;;;;;;10.73;1.63;;;5.40;99.20;;;;;;5094608;28;20028;-75
2022/02/01 03:42:50;;;;;;;10.43;1.70;;;5.40;99.60;;;;;;5093935;28;20076;-75
2022/02/01 03:45:15;;;;;;;9.93;1.60;;;5.40;99.40;;;;;;5094184;28;20473;-78
2022/02/01 03:47:41;;;;;;;12.90;1.70;;;5.40;99.40;;;;;;5112175;28;20035;-80
2022/02/01 03:50:07;;;;;;;10.60;1.37;;;5.30;99.50;;;;;;5094260;28;20038;-75
2022/02/01 03:52:34;;;;;;;11.20;1.33;;;5.30;99.70;;;;;;5094399;28;20423;-75
2022/02/01 03:54:59;;;;;;;6.57;1.03;;;5.20;99.20;;;;;;5093833;28;20028;-75
2022/02/01 03:57:25;;;;;;;11.13;1.50;;;5.20;99.50;;;;;;5112080;28;20111;-75
2022/02/01 03:59:51;;;;;;;10.43;1.73;;;5.20;99.40;;;;;;5088264;28;20077;-75
2022/02/01 04:02:17;;;;;;;8.37;1.37;;;5.20;99.30;;;;;;5088016;28;20031;-75
2022/02/01 04:04:43;;;;;;;11.33;1.50;;;5.20;99.40;;;;;;5093641;28;20097;-75
2022/02/01 04:07:09;;;;;;;9.97;2.23;;;5.20;98.80;;;;;;5094142;28;20527;-75
2022/02/01 04:09:35;;;;;;;12.03;2.40;;;5.20;98.70;;;;;;5094218;28;20027;-77
2022/02/01 04:12:04;;;;;;;15.13;2.47;;;5.20;97.60;;;;;;5093992;28;20088;-77
2022/02/01 04:14:32;;;;;;;9.93;2.00;;;5.20;97.50;;;;;;5098138;28;20114;-76
2022/02/01 04:17:00;;;;;;;4.13;1.50;;;5.20;97.50;;;;;;5097088;28;20023;-77
2022/02/01 04:19:28;;;;;;;6.23;1.87;;;5.20;97.10;;;;;;5098096;28;20047;-78
2022/02/01 04:22:01;;;;;;;11.97;1.50;;;5.20;97.40;;;;;;5115601;28;20380;-76
2022/02/01 04:24:35;;;;;;;9.97;1.60;;;5.10;97.30;;;;;;5116123;28;20069;-76
2022/02/01 04:27:01;;;;;;;10.10;1.30;;;5.10;97.40;;;;;;5076826;28;20160;-76
2022/02/01 04:29:27;;;;;;;7.53;1.80;;;5.10;97.40;;;;;;5092002;28;20047;-77
2022/02/01 04:31:53;;;;;;;8.80;1.67;;;5.10;97.50;;;;;;5085742;28;20024;-77
2022/02/01 04:34:19;;;;;;;7.90;1.20;;;5.10;97.30;;;;;;5094624;28;20398;-78
2022/02/01 04:36:45;;;;;;;9.30;1.47;;;5.10;97.60;;;;;;5093762;28;20058;-77
2022/02/01 04:39:11;;;;;;;9.67;1.47;;;5.10;97.70;;;;;;5093576;28;20073;-77
2022/02/01 04:41:37;;;;;;;11.20;1.80;;;5.10;97.80;;;;;;5094002;28;20040;-77
2022/02/01 04:44:04;;;;;;;10.30;1.43;;;5.10;97.90;;;;;;5093664;28;20035;-76
2022/02/01 04:46:30;;;;;;;8.97;1.50;;;5.10;98.30;;;;;;5094147;28;20039;-76
2022/02/01 04:49:02;;;;;;;9.30;1.60;;;5.00;98.40;;;;;;5093185;28;20479;-77
2022/02/01 04:51:29;;;;;;;9.73;2.28;;;4.90;98.70;;;;;;5095112;28;20081;-76
2022/02/01 04:53:55;;;;;;;11.93;1.73;;;4.80;99.10;;;;;;5094808;28;20031;-77
2022/02/01 04:56:21;;;;;;;9.30;1.63;;;4.80;98.90;;;;;;5093897;28;20457;-77
2022/02/01 04:58:47;;;;;;;9.77;1.63;;;4.80;99.10;;;;;;5093120;28;20032;-76
2022/02/01 05:01:13;;;;;;;10.47;1.47;;;4.80;99.10;;;;;;5095170;28;20028;-76
2022/02/01 05:03:40;;;;;;;8.13;2.10;;;4.80;99.20;;;;;;5094764;28;20035;-74
2022/02/01 05:06:07;;;;;;;11.73;1.83;;;4.80;98.90;;;;;;5094299;28;20020;-76
2022/02/01 05:08:36;;;;;;;9.60;1.53;;;4.70;99.40;;;;;;5093759;28;20028;-76
2022/02/01 05:11:02;;;;;;;11.80;2.13;;;4.80;99.40;;;;;;5077929;28;20028;-76
2022/02/01 05:16:12;;;;;;;15.70;2.03;;;4.80;99.10;;;;;;5094503;28;20028;-77
2022/02/01 05:18:45;;;;;;;9.52;1.58;;;4.70;99.00;;;;;;5093731;28;20400;-77
2022/02/01 05:21:18;;;;;;;7.33;2.00;;;4.70;99.10;;;;;;5093308;28;20125;-77
2022/02/01 05:23:44;;;;;;;7.47;1.77;;;4.80;99.00;;;;;;5092325;28;20457;-76
2022/02/01 05:26:13;;;;;;;8.63;1.40;;;4.80;99.10;;;;;;5091620;28;20051;-77
2022/02/01 05:28:41;;;;;;;8.93;1.53;;;4.80;99.10;;;;;;5092247;28;20126;-76
2022/02/01 05:31:07;;;;;;;8.37;1.43;;;4.80;99.10;;;;;;5093493;28;20024;-76
2022/02/01 05:33:33;;;;;;;6.07;2.23;;;4.80;99.10;;;;;;5092977;28;20077;-77
2022/02/01 05:36:01;;;;;;;7.83;1.83;;;4.70;99.30;;;;;;5092615;28;20020;-77
2022/02/01 05:38:27;;;;;;;10.97;1.50;;;4.70;99.00;;;;;;5093020;28;20031;-77
2022/02/01 05:40:53;;;;;;;6.63;1.37;;;4.80;99.20;;;;;;5092493;28;20039;-77
2022/02/01 05:43:24;;;;;;;9.63;1.90;;;4.80;99.20;;;;;;5092807;28;20035;-77
2022/02/01 05:45:51;;;;;;;10.65;1.30;;;4.80;99.20;;;;;;5091860;28;20081;-77
2022/02/01 05:48:17;;;;;;;8.43;1.27;;;4.80;99.20;;;;;;5094927;28;20046;-78
2022/02/01 05:50:43;;;;;;;4.13;1.10;;;4.80;99.20;;;;;;5091605;28;20036;-77
2022/02/01 05:53:09;;;;;;;10.77;1.90;;;4.80;99.40;;;;;;5093979;28;20469;-76
2022/02/01 05:55:35;;;;;;;7.83;1.43;;;4.70;99.40;;;;;;5093141;28;20111;-75
2022/02/01 05:58:02;;;;;;;8.30;1.30;;;4.70;99.40;;;;;;5092032;28;20199;-76
2022/02/01 06:00:29;;;;;;;6.13;1.60;;;4.70;99.30;;;;;;5097571;28;20051;-75
2022/02/01 06:02:54;;;;;;;10.77;1.53;;;4.70;99.10;;;;;;5097687;28;20056;-74
2022/02/01 06:05:20;;;;;;;8.40;1.47;;;4.70;98.60;;;;;;5105598;28;20117;-76
2022/02/01 06:07:46;;;;;;;10.27;1.70;;;4.70;98.70;;;;;;5099885;28;20024;-76
2022/02/01 06:10:12;;;;;;;6.23;1.50;;;4.70;98.50;;;;;;5103265;28;20020;-77
2022/02/01 06:12:43;;;;;;;15.67;1.93;;;4.70;98.60;;;;;;5100324;28;20032;-77
2022/02/01 06:15:10;;;;;;;12.60;2.17;;;4.70;98.60;;;;;;5102094;28;20530;-76
2022/02/01 06:17:37;;;;;;;10.57;1.67;;;4.70;98.70;;;;;;5099768;28;20516;-75
2022/02/01 06:20:04;;;;;;;6.27;1.27;;;4.70;98.60;;;;;;5092680;28;20115;-75
2022/02/01 06:22:30;;;;;;;6.33;1.43;;;4.60;98.80;;;;;;5091431;28;20028;-75
2022/02/01 06:24:58;;;;;;;5.57;1.30;;;4.60;98.80;;;;;;5092402;28;20035;-76
2022/02/01 06:27:25;;;;;;;8.60;1.67;;;4.60;98.80;;;;;;5102596;28;20489;-76
2022/02/01 06:29:51;;;;;;;8.43;1.30;;;4.60;98.90;;;;;;5103003;27;20027;-79
2022/02/01 06:32:17;;;;;;;6.23;1.33;;;4.60;98.90;;;;;;5115830;27;20038;-77
2022/02/01 06:34:43;;;;;;;6.67;1.43;;;4.50;98.80;;;;;;5112945;28;20024;-77
2022/02/01 06:37:10;;;;;;;9.23;2.13;;;4.50;99.00;;;;;;5094777;28;20103;-77
2022/02/01 06:39:37;;;;;;;5.23;1.67;;;4.50;98.90;;;;;;5095026;28;20059;-77
2022/02/01 06:42:04;;;;;;;9.90;1.47;;;4.50;99.00;;;;;;5113162;28;20083;-77
2022/02/01 06:44:30;;;;;;;6.67;1.30;;;4.50;98.90;;;;;;5113505;28;20031;-77
2022/02/01 06:46:55;;;;;;;7.67;1.40;;;4.50;98.70;;;;;;5113055;28;20036;-77
2022/02/01 06:49:21;;;;;;;9.40;1.53;;;4.60;98.70;;;;;;5095381;28;20116;-77
2022/02/01 06:51:47;;;;;;;10.13;1.50;;;4.60;98.60;;;;;;5094714;28;20059;-77
2022/02/01 06:54:13;;;;;;;8.10;1.17;;;4.60;98.70;;;;;;5094706;28;20077;-77
2022/02/01 06:56:39;;;;;;;6.27;1.20;;;4.50;98.80;;;;;;5095295;28;20387;-77
2022/02/01 06:59:05;;;;;;;4.97;1.00;;;4.50;98.90;;;;;;5094354;28;20115;-77
2022/02/01 07:01:32;;;;;;;7.67;1.30;;;4.50;99.10;;;;;;5094993;28;20118;-77
2022/02/01 07:03:59;;;;;;;6.50;1.10;;;4.50;99.10;;;;;;5094633;28;20087;-77
2022/02/01 07:06:25;;;;;;;10.37;1.40;;;4.50;99.30;;;;;;5095152;28;20032;-77
2022/02/01 07:08:52;;;;;;;6.20;1.60;;;4.50;99.30;;;;;;5112682;28;20483;-77
2022/02/01 07:11:20;;;;;;;6.30;1.20;;;4.50;99.30;;;;;;5094903;28;20027;-78
2022/02/01 07:13:47;;;;;;;6.43;1.47;;;4.60;99.50;;;;;;5094585;28;20369;-77
2022/02/01 07:16:13;;;;;;;6.10;1.00;;;4.50;99.70;;;;;;5094856;28;20027;-77
2022/02/01 07:18:39;;;;;;;5.63;1.10;;;4.50;99.90;;;;;;5094783;28;20110;-77
2022/02/01 07:21:05;;;;;;;8.23;1.30;;;4.50;99.90;;;;;;5094344;28;20473;-77
2022/02/01 07:23:31;;;;;;;6.33;1.30;;;4.40;99.90;;;;;;5094734;28;20032;-77
2022/02/01 07:25:58;;;;;;;6.37;1.73;;;4.40;99.90;;;;;;5094119;28;20413;-77
2022/02/01 07:28:25;;;;;;;7.17;1.50;;;4.50;99.90;;;;;;5094987;28;20035;-77
2022/02/01 07:30:51;;;;;;;6.43;1.53;;;4.50;99.90;;;;;;5083308;28;20024;-77
2022/02/01 07:33:17;;;;;;;3.57;1.27;;;4.40;99.90;;;;;;5094943;28;20023;-78
2022/02/01 07:35:48;;;;;;;9.77;1.30;;;4.50;99.90;;;;;;5094087;28;20118;-79
2022/02/01 07:38:21;;;;;;;7.30;1.30;;;4.50;99.90;;;;;;5094728;28;20108;-76
2022/02/01 07:40:47;;;;;;;7.60;1.20;;;4.50;99.90;;;;;;5094139;28;20027;-77
2022/02/01 07:43:14;;;;;;;2.93;1.37;;;4.40;99.90;;;;;;5094782;28;20491;-76
2022/02/01 07:45:41;;;;;;;6.20;1.23;;;4.40;99.90;;;;;;5112283;28;20039;-77
2022/02/01 07:48:07;;;;;;;9.07;1.80;;;4.40;99.90;;;;;;5114332;28;20027;-77
2022/02/01 07:50:33;;;;;;;8.50;1.80;;;4.50;99.90;;;;;;5116861;28;20475;-77
2022/02/01 07:53:00;;;;;;;8.50;2.20;;;4.40;99.90;;;;;;5097828;28;20020;-76
2022/02/01 07:55:26;;;;;;;7.90;1.70;;;4.40;99.90;;;;;;5097925;28;20030;-77
2022/02/01 07:57:52;;;;;;;7.77;1.67;;;4.40;99.90;;;;;;5097850;28;20445;-77
2022/02/01 08:00:17;;;;;;;11.40;1.97;;;4.40;99.90;;;;;;5089100;28;20067;-77
2022/02/01 08:02:43;;;;;;;9.93;1.80;;;4.40;99.90;;;;;;5095497;28;20027;-77
2022/02/01 08:05:10;;;;;;;8.50;2.00;;;4.40;99.90;;;;;;5098444;28;20023;-77
2022/02/01 08:07:39;;;;;;;6.60;1.60;;;4.40;99.90;;;;;;5116465;28;20022;-76
2022/02/01 08:10:09;;;;;;;10.43;1.93;;;4.40;99.90;;;;;;5115938;28;20019;-77
2022/02/01 08:20:30;;;;;;;10.80;1.97;;;4.40;99.90;;;;;;5116263;28;20528;-77
2022/02/01 08:25:25;;;;;;;9.33;1.83;;;4.40;99.90;;;;;;5115801;28;20024;-77
2022/02/01 08:27:55;;;;;;;6.83;1.77;;;4.50;99.90;;;;;;5097311;28;20059;-77
2022/02/01 08:30:22;;;;;;;7.00;1.93;;;4.50;99.90;;;;;;5115948;28;20050;-77
2022/02/01 08:32:48;;;;;;;12.57;1.77;;;4.50;99.90;;;;;;5114749;28;20031;-77
2022/02/01 08:35:14;;;;;;;8.70;1.93;;;4.50;99.90;;;;;;5115867;28;20020;-76
2022/02/01 08:37:39;;;;;;;10.60;1.93;;;4.50;99.90;;;;;;5097527;28;20038;-77
2022/02/01 08:40:05;;;;;;;12.67;1.37;;;4.50;99.90;;;;;;5096728;28;20468;-77
2022/02/01 08:42:31;;;;;;;7.07;1.60;;;4.50;99.90;;;;;;5096141;28;20172;-77
2022/02/01 08:44:57;;;;;;;6.87;1.70;;;4.50;99.90;;;;;;5096511;28;20080;-77
2022/02/01 08:47:23;;;;;;;4.40;1.43;;;4.60;99.90;;;;;;5097232;28;20024;-76
2022/02/01 08:49:49;;;;;;;13.07;2.27;;;4.50;99.90;;;;;;5096929;28;20035;-77
2022/02/01 08:52:25;;;;;;;9.00;2.03;;;4.50;99.90;;;;;;5097499;28;20030;-77
2022/02/01 08:54:52;;;;;;;7.17;1.60;;;4.50;99.90;;;;;;5096726;28;20027;-77
2022/02/01 08:57:21;;;;;;;7.93;1.37;;;4.50;99.90;;;;;;5115657;28;20016;-77
2022/02/01 08:59:56;;;;;;;9.90;1.63;;;4.50;99.90;;;;;;5110111;28;20024;-77
2022/02/01 09:02:24;;;;;;;5.00;1.60;;;4.50;99.90;;;;;;5086233;28;20028;-77
2022/02/01 09:04:50;;;;;;;6.90;1.73;;;4.60;99.90;;;;;;5091869;28;20020;-81
2022/02/01 09:07:16;;;;;;;6.73;1.50;;;4.60;99.90;;;;;;5088613;28;20032;-75
2022/02/01 09:09:42;;;;;;;8.40;1.40;;;4.50;99.90;;;;;;5089856;28;20072;-78
2022/02/01 09:12:08;;;;;;;6.73;1.80;;;4.50;99.90;;;;;;5105423;28;20031;-76
2022/02/01 09:14:34;;;;;;;8.37;2.07;;;4.50;99.90;;;;;;5090479;28;20024;-76
2022/02/01 09:17:01;;;;;;;6.50;1.97;;;4.50;99.90;;;;;;5105622;28;20028;-77
2022/02/01 09:19:28;;;;;;;11.40;1.80;;;4.40;99.90;;;;;;5093369;28;20084;-77
2022/02/01 09:21:54;;;;;;;8.70;1.63;;;4.40;99.90;;;;;;5086653;28;20023;-77
2022/02/01 09:24:20;;;;;;;7.33;2.03;;;4.40;99.90;;;;;;5086333;28;20152;-78
2022/02/01 09:26:45;;;;;;;11.33;1.90;;;4.40;99.90;;;;;;5087508;28;20488;-78
2022/02/01 09:29:11;;;;;;;9.07;1.50;;;4.40;99.90;;;;;;5085778;28;20114;-78
2022/02/01 09:31:37;;;;;;;7.37;1.67;;;4.40;99.90;;;;;;5084643;28;20249;-78
2022/02/01 09:34:05;;;;;;;13.33;1.90;;;4.40;99.90;;;;;;5091233;28;20376;-78
2022/02/01 09:36:31;;;;;;;10.73;1.50;;;4.40;99.90;;;;;;5103718;28;20024;-78
2022/02/01 09:38:56;;;;;;;4.97;1.30;;;4.40;99.90;;;;;;5093139;28;20385;-77
2022/02/01 09:41:27;;;;;;;7.33;1.53;;;4.40;99.90;;;;;;5092609;28;20035;-77
2022/02/01 09:48:59;;;;;;;8.00;1.87;;;4.50;99.90;;;;;;5220790;23;20146;-76
2022/02/01 09:51:25;;;;;;;12.63;1.83;;;4.50;99.90;;;;;;4974306;28;20035;-76
2022/02/01 09:53:51;;;;;;;11.87;1.50;;;4.50;99.90;;;;;;4974012;28;20035;-76
2022/02/01 09:56:17;;;;;;;10.33;1.27;;;4.50;99.90;;;;;;4974535;28;20022;-76
2022/02/01 09:58:45;;;;;;;5.77;1.13;;;4.50;99.90;;;;;;4973505;28;20085;-76
2022/02/01 10:01:18;;;;;;;8.47;1.27;;;4.50;99.90;;;;;;4974960;28;20057;-75
2022/02/01 10:03:46;;;;;;;7.40;1.60;;;4.50;99.90;;;;;;4974007;28;20030;-76
2022/02/01 10:06:17;;;;;;;9.57;1.50;;;4.50;99.90;;;;;;4974247;28;20031;-75
2022/02/01 10:08:46;;;;;;;6.50;1.25;;;4.50;99.90;;;;;;4973420;28;20037;-76
2022/02/01 10:11:13;;;;;;;8.33;1.57;;;4.60;99.90;;;;;;4972902;28;20037;-76
2022/02/01 10:13:42;;;;;;;5.03;1.33;;;4.60;99.90;;;;;;4973118;28;20030;-77
2022/02/01 10:16:27;;;;;;;6.57;1.53;;;4.60;99.90;;;;;;4973530;28;20072;-77
2022/02/01 10:18:53;;;;;;;5.50;1.20;;;4.60;99.80;;;;;;4974612;28;20383;-76
2022/02/01 10:21:18;;;;;;;9.90;1.67;;;4.60;99.90;;;;;;4973509;28;20089;-75
2022/02/01 10:23:46;;;;;;;5.50;1.30;;;4.60;99.90;;;;;;4973353;28;20031;-76
2022/02/01 10:26:17;;;;;;;8.47;1.67;;;4.70;99.80;;;;;;4973554;28;20081;-76
2022/02/01 10:31:44;;;;;;;9.83;1.87;;;4.70;99.90;;;;;;4974713;28;20182;-76
2022/02/01 10:36:52;;;;;;;4.45;1.40;;;4.70;99.50;;;;;;4974307;28;20039;-76
2022/02/01 10:39:27;;;;;;;6.27;1.20;;;4.70;99.60;;;;;;4973447;28;20114;-75
2022/02/01 10:41:57;;;;;;;8.30;1.67;;;4.80;99.50;;;;;;4972871;28;20034;-75
2022/02/01 10:44:35;;;;;;;8.10;1.80;;;4.90;99.10;;;;;;4974518;28;20538;-75
2022/02/01 10:47:00;;;;;;;4.50;1.50;;;4.80;99.00;;;;;;4974115;28;20038;-74
2022/02/01 10:49:33;;;;;;;9.57;1.50;;;4.80;99.00;;;;;;4972684;28;20058;-74
2022/02/01 10:52:07;;;;;;;7.67;1.90;;;4.90;99.10;;;;;;4972398;28;20027;-76
2022/02/01 10:54:36;;;;;;;10.67;2.20;;;4.90;99.60;;;;;;4961327;28;20123;-76
2022/02/01 10:57:03;;;;;;;11.27;2.03;;;4.90;99.70;;;;;;4970749;28;20023;-75
2022/02/01 10:59:29;;;;;;;10.67;1.90;;;5.00;99.80;;;;;;4964386;28;20092;-76
2022/02/01 11:01:57;;;;;;;5.40;2.03;;;5.00;99.90;;;;;;4969801;28;20031;-77
2022/02/01 11:04:24;;;;;;;4.10;1.50;;;4.90;99.90;;;;;;4972596;28;20479;-75
2022/02/01 11:06:51;;;;;;;6.67;1.33;;;4.80;99.90;;;;;;4972424;28;20533;-77
2022/02/01 11:09:25;;;;;;;9.70;1.57;;;4.80;99.90;;;;;;4972490;28;20038;-79
2022/02/01 11:11:52;;;;;;;6.37;1.40;;;4.90;99.90;;;;;;4972382;28;20023;-77
2022/02/01 11:14:20;;;;;;;7.87;1.90;;;4.80;99.90;;;;;;4973003;28;20085;-77
2022/02/01 11:16:45;;;;;;;7.33;1.83;;;4.80;99.90;;;;;;4973398;28;20392;-78
2022/02/01 11:19:11;;;;;;;8.17;1.80;;;4.80;99.90;;;;;;4969810;28;20043;-78
2022/02/01 11:21:46;;;;;;;8.17;1.73;;;4.80;99.90;;;;;;4955149;28;20031;-79
2022/02/01 11:24:44;;;;;;;6.93;1.70;;;4.80;99.90;;;;;;4976311;28;20102;-78
2022/02/01 11:27:18;;;;;;;7.57;1.23;;;4.80;99.90;;;;;;4974004;28;20023;-79
2022/02/01 11:30:11;;;;;;;7.43;1.63;;;4.80;99.90;;;;;;4971011;28;20026;-85
2022/02/01 11:32:57;;;;;;;;;;;4.70;99.90;;;;;;4975775;28;20114;-79
2022/02/01 11:35:25;;;;;;;6.37;1.50;;;4.70;99.90;;;;;;4970231;28;20366;-78
2022/02/01 11:37:52;;;;;;;6.87;1.60;;;4.70;99.90;;;;;;4975428;28;20031;-78
2022/02/01 11:40:19;;;;;;;6.17;1.63;;;4.70;99.90;;;;;;4965216;28;20472;-77
2022/02/01 11:43:04;;;;;;;8.33;1.73;;;4.70;99.90;;;;;;4976941;28;20027;-83
2022/02/01 11:45:33;;;;;;;6.17;1.40;;;4.70;99.90;;;;;;4975998;28;20034;-79
2022/02/01 11:48:00;;;;;;;5.50;1.40;;;4.70;99.90;;;;;;4975443;28;20027;-79
2022/02/01 11:50:27;;;;;;;6.00;1.47;;;4.80;99.90;;;;;;4977886;28;20461;-79
2022/02/01 11:52:57;;;;;;;12.20;1.50;;;4.80;99.90;;;;;;4975788;28;20105;-77
2022/02/01 11:55:28;;;;;;;7.40;1.40;;;4.80;99.90;;;;;;4975726;28;20030;-76
2022/02/01 11:58:03;;;;;;;8.20;1.38;;;4.80;99.90;;;;;;4976705;28;20110;-76
2022/02/01 12:00:37;;;;;;;7.30;1.60;;;4.80;99.90;;;;;;4976693;28;20034;-78
2022/02/01 12:03:04;;;;;;;5.70;1.70;;;4.80;99.90;;;;;;4975387;28;20033;-77
2022/02/01 12:05:38;;;;;;;2.67;1.33;;;4.70;99.90;;;;;;4975323;28;20035;-76
2022/02/01 12:10:38;;;;;;;9.77;1.80;;;4.70;99.90;;;;;;4976843;28;20530;-77
2022/02/01 12:13:04;;;;;;;6.83;1.20;;;4.60;99.90;;;;;;4976054;28;20098;-76
2022/02/01 12:15:32;;;;;;;8.20;1.30;;;4.60;99.90;;;;;;4975390;28;20118;-76
2022/02/01 12:18:08;;;;;;;5.03;1.30;;;4.60;99.90;;;;;;4975142;28;20027;-76
2022/02/01 12:20:38;;;;;;;7.10;1.40;;;4.50;99.90;;;;;;4976717;28;20043;-77
2022/02/01 12:23:26;;;;;;;4.80;1.73;;;4.50;99.90;;;;;;4974836;28;20623;-77
2022/02/01 12:25:53;;;;;;;8.60;1.37;;;4.50;99.90;;;;;;4975091;28;20033;-76
2022/02/01 12:28:25;;;;;;;6.60;1.40;;;4.50;99.90;;;;;;4974905;28;20027;-76
2022/02/01 12:31:09;;;;;;;12.47;1.80;;;4.50;99.90;;;;;;4974811;28;20026;-78
2022/02/01 12:33:41;;;;;;;10.87;1.50;;;4.50;99.90;;;;;;4961396;28;20037;-77
2022/02/01 12:36:07;;;;;;;8.77;1.50;;;4.50;99.90;;;;;;4974788;28;20134;-75
2022/02/01 12:38:32;;;;;;;6.77;1.87;;;4.50;99.90;;;;;;4976361;28;20030;-77
2022/02/01 12:41:11;;;;;;;6.90;1.50;;;4.60;99.90;;;;;;4974767;28;20031;-79
2022/02/01 12:43:54;;;;;;;13.10;1.70;;;4.60;99.90;;;;;;4976293;28;20027;-77
2022/02/01 12:46:39;;;;;;;5.93;1.50;;;4.50;99.90;;;;;;4974699;28;20121;-77
2022/02/01 12:49:05;;;;;;;7.03;1.37;;;4.50;99.90;;;;;;4974423;28;20647;-78
2022/02/01 12:51:45;;;;;;;4.10;1.23;;;4.50;99.90;;;;;;4974839;28;20100;-78
2022/02/01 12:54:29;;;;;;;8.03;1.40;;;4.30;99.90;;;;;;4973796;28;20027;-77
2022/02/01 12:57:13;;;;;;;4.87;1.20;;;4.20;99.90;;;;;;4974290;28;20037;-78
2022/02/01 12:59:42;;;;;;;6.87;1.40;;;4.10;99.90;;;;;;4975179;28;20069;-79
2022/02/01 13:02:11;;;;;;;7.60;1.37;;;4.10;99.90;;;;;;4965603;28;20472;-78
2022/02/01 13:04:37;;;;;;;4.77;1.37;;;4.10;99.90;;;;;;4971237;28;20419;-78
2022/02/01 13:07:13;;;;;;;9.57;1.60;;;4.10;99.90;;;;;;4974115;28;20054;-78
2022/02/01 13:15:14;;;;;;;8.17;1.93;;;4.00;99.90;;;;;;4974910;28;20034;-79
2022/02/01 13:17:58;;;;;;;6.27;1.60;;;4.00;99.90;;;;;;4974500;28;20129;-75
2022/02/01 13:20:24;;;;;;;3.10;1.43;;;3.80;99.90;;;;;;4974344;28;20039;-76
2022/02/01 13:23:04;;;;;;;8.87;1.47;;;3.80;99.90;;;;;;4973532;28;20038;-83
2022/02/01 13:25:46;;;;;;;9.80;1.93;;;3.80;99.90;;;;;;4960038;28;20038;-77
2022/02/01 13:28:14;;;;;;;3.70;1.60;;;3.70;99.90;;;;;;4974077;28;20062;-77
2022/02/01 13:30:42;;;;;;;12.03;2.23;;;3.60;99.90;;;;;;4974140;28;20031;-78
2022/02/01 13:33:16;;;;;;;8.77;2.70;;;3.50;99.90;;;;;;4972678;28;20031;-80
2022/02/01 13:35:44;;;;;;;7.43;2.07;;;3.50;99.90;;;;;;4973675;28;20034;-77
2022/02/01 13:38:11;;;;;;;5.77;1.60;;;3.40;99.90;;;;;;4973315;28;20030;-78
2022/02/01 13:40:37;;;;;;;7.13;1.60;;;3.40;99.90;;;;;;4973977;28;20072;-78
2022/02/01 13:43:16;;;;;;;7.00;1.77;;;3.40;99.90;;;;;;4973130;28;20490;-77
2022/02/01 13:45:43;;;;;;;7.87;1.77;;;3.30;99.90;;;;;;4972922;28;20384;-77
2022/02/01 13:48:12;;;;;;;4.77;2.03;;;3.30;99.90;;;;;;4972390;28;20042;-75
2022/02/01 13:50:38;;;;;;;5.33;1.83;;;3.30;99.90;;;;;;4974968;28;20033;-78
2022/02/01 13:53:06;;;;;;;9.03;2.00;;;3.30;99.90;;;;;;4973391;28;20050;-77
2022/02/01 13:55:36;;;;;;;8.90;1.80;;;3.30;99.90;;;;;;4973963;28;20027;-78
2022/02/01 13:58:08;;;;;;;9.60;2.00;;;3.20;99.90;;;;;;4975024;28;20037;-84
2022/02/01 14:00:42;;;;;;;7.40;2.20;;;3.20;99.90;;;;;;4963855;28;20026;-76
2022/02/01 14:03:34;;;;;;;9.57;2.03;;;3.20;99.90;;;;;;4974309;28;20034;-81
2022/02/01 14:06:20;;;;;;;6.32;2.17;;;3.10;99.90;;;;;;4970174;28;20023;-81
2022/02/01 14:09:05;;;;;;;8.70;2.00;;;3.20;99.90;;;;;;4970687;28;20034;-83
2022/02/01 14:35:51;;;;;;;8.77;2.37;;;3.00;99.90;;;;;;4974919;28;20575;-88
2022/02/01 14:43:50;;;;;;;5.27;1.80;;;3.10;99.90;;;;;;4968401;28;20069;-80
2022/02/01 14:46:16;;;;;;;7.80;2.03;;;3.10;99.90;;;;;;4973135;28;20226;-78
2022/02/01 14:48:42;;;;;;;4.83;1.90;;;3.10;99.90;;;;;;4974455;28;20055;-78
2022/02/01 14:51:09;;;;;;;8.43;1.53;;;3.00;99.90;;;;;;4973057;28;20034;-80
2022/02/01 14:53:35;;;;;;;4.23;1.50;;;3.10;99.90;;;;;;4973505;28;20468;-80
2022/02/01 14:56:18;;;;;;;6.47;1.87;;;3.10;99.90;;;;;;4974093;28;20028;-81
2022/02/01 15:14:42;;;;;;;3.73;1.40;;;3.10;99.90;;;;;;4974991;28;20387;-80
2022/02/01 15:17:10;;;;;;;4.93;1.23;;;3.10;99.90;;;;;;4974105;28;20419;-80
2022/02/01 15:19:36;;;;;;;4.53;1.30;;;3.10;99.90;;;;;;4973136;28;20105;-80
2022/02/01 15:22:01;;;;;;;5.33;1.33;;;3.20;99.90;;;;;;4973148;28;20062;-80
2022/02/01 15:24:27;;;;;;;2.93;1.33;;;3.20;99.90;;;;;;4974482;28;20027;-79
2022/02/01 15:26:53;;;;;;;7.40;1.60;;;3.20;99.90;;;;;;4973076;28;20475;-82
2022/02/01 15:29:18;;;;;;;5.40;1.67;;;3.20;99.90;;;;;;4973662;28;20082;-79
2022/02/01 15:31:44;;;;;;;4.17;1.30;;;3.20;99.90;;;;;;4973928;28;20053;-80